createdAt,value
2022-12-19T00:01:09.247Z,41.00
2022-12-19T00:01:56.428Z,49.92
2022-12-19T00:02:43.644Z,46.33
2022-12-19T00:03:32.369Z,47.80
2022-12-19T00:04:21.463Z,47.10
2022-12-19T00:05:08.453Z,50.33
2022-12-19T00:05:55.441Z,45.00
2022-12-19T00:06:43.782Z,45.63
2022-12-19T00:07:31.014Z,44.75
2022-12-19T00:08:18.210Z,43.33
2022-12-19T00:09:08.435Z,46.75
2022-12-19T00:09:55.455Z,47.30
2022-12-19T00:10:42.714Z,45.30
2022-12-19T00:11:30.118Z,44.10
2022-12-19T00:12:19.321Z,46.45
2022-12-19T00:13:06.354Z,46.80
2022-12-19T00:13:53.590Z,44.25
2022-12-19T00:14:40.642Z,46.17
2022-12-19T00:15:28.199Z,47.58
2022-12-19T00:16:20.166Z,46.08
2022-12-19T00:17:07.101Z,47.85
2022-12-19T00:17:54.385Z,47.60
2022-12-19T00:18:42.614Z,45.70
2022-12-19T00:19:29.753Z,49.15
2022-12-19T00:20:18.678Z,49.58
2022-12-19T00:21:06.297Z,46.58
2022-12-19T00:21:53.176Z,44.97
2022-12-19T00:22:40.155Z,45.55
2022-12-19T00:23:29.498Z,46.13
2022-12-19T00:24:20.724Z,44.72
2022-12-19T00:25:08.845Z,47.62
2022-12-19T00:25:56.605Z,44.92
2022-12-19T00:26:43.866Z,47.08
2022-12-19T00:27:34.857Z,47.70
2022-12-19T00:28:22.030Z,42.45
2022-12-19T00:29:14.121Z,46.47
2022-12-19T00:30:01.415Z,44.08
2022-12-19T00:30:48.384Z,46.28
2022-12-19T00:31:36.833Z,44.33
2022-12-19T00:32:23.775Z,44.97
2022-12-19T00:33:10.694Z,45.40
2022-12-19T00:33:58.068Z,46.37
2022-12-19T00:34:45.367Z,47.62
2022-12-19T00:35:32.267Z,40.08
2022-12-19T00:36:22.904Z,42.78
2022-12-19T00:37:12.077Z,42.05
2022-12-19T00:37:59.001Z,44.72
2022-12-19T00:38:46.587Z,39.83
2022-12-19T00:39:33.467Z,43.97
2022-12-19T00:40:20.425Z,45.90
2022-12-19T00:41:09.654Z,45.60
2022-12-19T00:41:56.523Z,42.62
2022-12-19T00:42:46.414Z,49.22
2022-12-19T00:43:35.725Z,44.50
2022-12-19T00:44:22.895Z,43.90
2022-12-19T00:45:18.754Z,42.28
2022-12-19T00:46:07.980Z,44.13
2022-12-19T00:46:54.946Z,45.30
2022-12-19T00:47:41.809Z,41.15
2022-12-19T00:48:29.291Z,44.13
2022-12-19T00:49:16.315Z,44.13
2022-12-19T00:50:04.505Z,48.20
2022-12-19T00:50:58.695Z,44.22
2022-12-19T00:51:45.745Z,44.53
2022-12-19T00:52:33.107Z,41.67
2022-12-19T00:53:21.093Z,44.20
2022-12-19T00:54:08.061Z,46.17
2022-12-19T00:54:55.458Z,43.60
2022-12-19T00:55:42.367Z,43.40
2022-12-19T00:56:33.505Z,43.30
2022-12-19T00:57:24.784Z,46.40
2022-12-19T00:58:11.644Z,41.47
2022-12-19T00:58:58.925Z,41.10
2022-12-19T00:59:45.897Z,38.58
2022-12-19T01:00:32.838Z,49.72
2022-12-19T01:01:24.658Z,46.30
2022-12-19T01:02:11.811Z,43.87
2022-12-19T01:02:59.012Z,41.80
2022-12-19T01:04:04.275Z,45.58
2022-12-19T01:04:53.255Z,41.03
2022-12-19T01:05:40.744Z,44.22
2022-12-19T01:06:29.659Z,42.50
2022-12-19T01:07:16.921Z,41.05
2022-12-19T01:08:03.886Z,44.20
2022-12-19T01:08:50.892Z,40.75
2022-12-19T01:09:37.978Z,44.65
2022-12-19T01:10:24.875Z,42.40
2022-12-19T01:11:12.016Z,40.53
2022-12-19T01:12:17.645Z,43.05
2022-12-19T01:13:04.494Z,42.00
2022-12-19T01:13:51.335Z,43.40
2022-12-19T01:14:38.276Z,45.30
2022-12-19T01:15:25.246Z,43.35
2022-12-19T01:16:13.767Z,45.50
2022-12-19T01:17:00.644Z,42.78
2022-12-19T01:17:48.826Z,42.60
2022-12-19T01:18:36.285Z,39.70
2022-12-19T01:19:23.175Z,41.50
2022-12-19T01:20:10.776Z,45.05
2022-12-19T01:21:00.077Z,52.50
2022-12-19T01:21:47.245Z,44.80
2022-12-19T01:22:35.344Z,41.90
2022-12-19T01:23:23.039Z,46.42
2022-12-19T01:24:09.996Z,43.83
2022-12-19T01:24:56.949Z,41.97
2022-12-19T01:25:45.879Z,42.80
2022-12-19T01:26:33.085Z,46.47
2022-12-19T01:27:19.976Z,40.50
2022-12-19T01:28:07.597Z,41.92
2022-12-19T01:28:54.534Z,46.75
2022-12-19T01:29:45.818Z,44.95
2022-12-19T01:30:40.698Z,40.88
2022-12-19T01:31:28.691Z,43.40
2022-12-19T01:32:15.604Z,48.33
2022-12-19T01:33:02.545Z,45.15
2022-12-19T01:33:49.475Z,40.97
2022-12-19T01:34:37.266Z,45.50
2022-12-19T01:35:24.556Z,43.35
2022-12-19T01:36:11.435Z,41.22
2022-12-19T01:36:58.296Z,48.25
2022-12-19T01:37:45.218Z,40.55
2022-12-19T01:38:32.126Z,39.92
2022-12-19T01:39:19.034Z,43.95
2022-12-19T01:40:06.583Z,43.72
2022-12-19T01:40:55.965Z,43.30
2022-12-19T01:41:42.980Z,44.45
2022-12-19T01:42:35.266Z,46.47
2022-12-19T01:43:23.436Z,41.45
2022-12-19T01:44:10.318Z,40.40
2022-12-19T01:45:10.325Z,43.35
2022-12-19T01:46:06.498Z,42.72
2022-12-19T01:46:57.754Z,41.13
2022-12-19T01:48:14.011Z,42.17
2022-12-19T01:49:01.707Z,37.53
2022-12-19T01:49:48.642Z,38.88
2022-12-19T01:51:01.480Z,43.17
2022-12-19T01:51:49.704Z,39.33
2022-12-19T01:52:36.594Z,39.95
2022-12-19T01:53:26.482Z,41.95
2022-12-19T01:54:21.236Z,40.53
2022-12-19T01:55:09.026Z,37.97
2022-12-19T01:55:56.278Z,43.53
2022-12-19T01:56:46.693Z,44.55
2022-12-19T01:57:34.777Z,43.45
2022-12-19T01:58:24.329Z,42.35
2022-12-19T01:59:15.004Z,39.72
2022-12-19T02:00:04.235Z,38.88
2022-12-19T02:00:51.273Z,37.40
2022-12-19T02:01:49.010Z,42.78
2022-12-19T02:02:45.754Z,43.15
2022-12-19T02:03:34.277Z,42.80
2022-12-19T02:04:21.783Z,42.22
2022-12-19T02:05:08.977Z,40.10
2022-12-19T02:05:56.564Z,39.92
2022-12-19T02:06:43.535Z,40.70
2022-12-19T02:07:31.932Z,42.65
2022-12-19T02:08:19.017Z,41.30
2022-12-19T02:09:05.901Z,40.28
2022-12-19T02:09:56.999Z,41.37
2022-12-19T02:10:44.364Z,42.10
2022-12-19T02:11:31.477Z,40.90
2022-12-19T02:12:18.392Z,44.25
2022-12-19T02:13:08.437Z,38.67
2022-12-19T02:13:55.356Z,41.75
2022-12-19T02:14:42.546Z,39.35
2022-12-19T02:15:33.559Z,42.30
2022-12-19T02:16:39.409Z,42.17
2022-12-19T02:17:39.988Z,36.60
2022-12-19T02:18:38.940Z,37.10
2022-12-19T02:19:54.120Z,36.65
2022-12-19T02:21:08.269Z,35.60
2022-12-19T02:22:32.366Z,39.83
2022-12-19T02:23:31.167Z,42.65
2022-12-19T02:24:29.383Z,36.70
2022-12-19T02:25:47.359Z,39.58
2022-12-19T02:26:46.922Z,42.72
2022-12-19T02:27:46.042Z,39.45
2022-12-19T02:29:10.362Z,37.42
2022-12-19T02:30:11.115Z,34.63
2022-12-19T02:32:26.225Z,37.47
2022-12-19T02:33:20.456Z,40.22
2022-12-19T02:34:14.222Z,37.35
2022-12-19T02:35:26.526Z,37.83
2022-12-19T02:36:18.297Z,43.33
2022-12-19T02:37:09.180Z,39.10
2022-12-19T02:38:02.574Z,39.95
2022-12-19T02:39:00.270Z,36.45
2022-12-19T02:40:05.349Z,38.55
2022-12-19T02:40:59.033Z,40.63
2022-12-19T02:41:55.364Z,35.38
2022-12-19T02:42:45.774Z,42.42
2022-12-19T02:43:37.037Z,35.90
2022-12-19T02:44:26.570Z,40.83
2022-12-19T02:45:16.801Z,43.47
2022-12-19T02:46:14.401Z,38.70
2022-12-19T02:47:03.042Z,38.50
2022-12-19T02:47:50.032Z,39.97
2022-12-19T02:48:37.052Z,40.80
2022-12-19T02:49:30.717Z,45.90
2022-12-19T02:50:18.356Z,41.15
2022-12-19T02:51:05.516Z,37.15
2022-12-19T02:51:52.453Z,38.25
2022-12-19T02:52:39.315Z,37.03
2022-12-19T02:53:26.335Z,37.20
2022-12-19T02:54:13.267Z,38.47
2022-12-19T02:55:04.028Z,38.58
2022-12-19T02:56:08.057Z,38.72
2022-12-19T02:57:17.487Z,38.60
2022-12-19T02:58:16.329Z,41.17
2022-12-19T02:59:17.817Z,38.17
2022-12-19T03:00:13.603Z,35.75
2022-12-19T03:01:17.088Z,35.30
2022-12-19T03:02:14.175Z,33.92
2022-12-19T03:03:21.984Z,37.85
2022-12-19T03:04:38.091Z,41.28
2022-12-19T03:05:40.380Z,41.97
2022-12-19T03:06:41.273Z,37.58
2022-12-19T03:07:49.433Z,39.85
2022-12-19T03:08:47.686Z,40.47
2022-12-19T03:10:00.224Z,40.15
2022-12-19T03:10:53.748Z,35.63
2022-12-19T03:11:42.633Z,40.67
2022-12-19T03:12:53.022Z,47.35
2022-12-19T03:13:48.222Z,43.80
2022-12-19T03:14:35.827Z,38.22
2022-12-19T03:15:23.384Z,41.75
2022-12-19T03:16:14.061Z,48.90
2022-12-19T03:17:06.103Z,47.53
2022-12-19T03:17:59.238Z,46.88
2022-12-19T03:18:46.297Z,49.58
2022-12-19T03:19:35.260Z,41.33
2022-12-19T03:20:44.566Z,47.58
2022-12-19T03:21:37.650Z,42.28
2022-12-19T03:22:24.638Z,54.15
2022-12-19T03:23:15.309Z,46.80
2022-12-19T03:24:02.766Z,48.90
2022-12-19T03:24:49.738Z,43.38
2022-12-19T03:25:36.661Z,55.58
2022-12-19T03:26:25.808Z,48.83
2022-12-19T03:27:21.196Z,45.33
2022-12-19T03:28:12.749Z,45.42
2022-12-19T03:29:16.563Z,49.50
2022-12-19T03:30:07.153Z,52.22
2022-12-19T03:31:41.771Z,44.83
2022-12-19T03:32:30.367Z,45.90
2022-12-19T03:33:19.330Z,45.17
2022-12-19T03:34:19.471Z,46.53
2022-12-19T03:35:08.965Z,35.33
2022-12-19T03:35:56.803Z,51.53
2022-12-19T03:36:47.346Z,41.53
2022-12-19T03:38:22.193Z,44.88
2022-12-19T03:39:10.719Z,46.63
2022-12-19T03:40:00.387Z,47.03
2022-12-19T03:40:48.421Z,43.45
2022-12-19T03:41:54.816Z,42.42
2022-12-19T03:43:05.344Z,44.80
2022-12-19T03:43:52.420Z,52.60
2022-12-19T03:44:41.564Z,52.75
2022-12-19T03:45:54.622Z,51.75
2022-12-19T03:46:50.923Z,47.70
2022-12-19T03:47:44.956Z,47.20
2022-12-19T03:48:45.620Z,46.97
2022-12-19T03:49:32.666Z,59.10
2022-12-19T03:50:19.766Z,45.47
2022-12-19T03:51:15.908Z,52.45
2022-12-19T03:52:05.406Z,48.45
2022-12-19T03:53:10.629Z,50.75
2022-12-19T03:54:07.951Z,46.78
2022-12-19T03:55:06.815Z,46.72
2022-12-19T03:56:37.073Z,47.45
2022-12-19T03:58:01.019Z,58.45
2022-12-19T03:58:52.197Z,46.25
2022-12-19T03:59:45.229Z,48.75
2022-12-19T04:00:34.782Z,50.75
2022-12-19T04:01:22.007Z,55.40
2022-12-19T04:02:10.465Z,50.47
2022-12-19T04:02:58.036Z,53.58
2022-12-19T04:03:45.344Z,52.55
2022-12-19T04:04:36.568Z,51.58
2022-12-19T04:05:27.603Z,47.72
2022-12-19T04:06:15.218Z,48.10
2022-12-19T04:07:03.825Z,49.53
2022-12-19T04:07:52.937Z,50.53
2022-12-19T04:08:40.253Z,49.50
2022-12-19T04:09:27.387Z,52.95
2022-12-19T04:10:17.389Z,48.15
2022-12-19T04:11:09.667Z,43.63
2022-12-19T04:12:10.339Z,51.45
2022-12-19T04:13:12.938Z,46.45
2022-12-19T04:14:03.467Z,43.90
2022-12-19T04:14:50.496Z,44.13
2022-12-19T04:15:49.207Z,44.95
2022-12-19T04:16:44.427Z,51.67
2022-12-19T04:17:49.808Z,46.42
2022-12-19T04:18:37.949Z,53.75
2022-12-19T04:19:48.849Z,51.63
2022-12-19T04:20:38.331Z,50.83
2022-12-19T04:21:32.881Z,43.28
2022-12-19T04:22:37.232Z,47.75
2022-12-19T04:23:29.363Z,46.70
2022-12-19T04:24:26.813Z,46.75
2022-12-19T04:25:16.803Z,49.28
2022-12-19T04:26:05.356Z,43.17
2022-12-19T04:26:54.431Z,44.33
2022-12-19T04:27:44.941Z,44.28
2022-12-19T04:28:45.975Z,46.45
2022-12-19T04:29:34.980Z,45.08
2022-12-19T04:30:22.018Z,42.00
2022-12-19T04:31:12.164Z,45.30
2022-12-19T04:31:59.409Z,46.08
2022-12-19T04:32:47.101Z,46.67
2022-12-19T04:33:34.088Z,45.03
2022-12-19T04:34:21.734Z,38.83
2022-12-19T04:35:09.632Z,43.78
2022-12-19T04:35:56.479Z,46.20
2022-12-19T04:36:43.398Z,48.85
2022-12-19T04:37:31.446Z,44.20
2022-12-19T04:38:18.360Z,41.60
2022-12-19T04:39:05.386Z,49.95
2022-12-19T04:39:52.269Z,46.97
2022-12-19T04:40:41.523Z,42.88
2022-12-19T04:41:28.800Z,34.33
2022-12-19T04:42:15.669Z,44.05
2022-12-19T04:43:02.638Z,48.15
2022-12-19T04:43:49.543Z,45.78
2022-12-19T04:44:36.448Z,42.67
2022-12-19T04:45:23.404Z,52.58
2022-12-19T04:46:10.689Z,44.45
2022-12-19T04:46:57.627Z,45.55
2022-12-19T04:47:44.559Z,44.60
2022-12-19T04:48:31.511Z,47.03
2022-12-19T04:49:18.570Z,42.67
2022-12-19T04:50:06.255Z,43.42
2022-12-19T04:50:53.260Z,45.90
2022-12-19T04:51:40.148Z,46.85
2022-12-19T04:52:27.059Z,43.90
2022-12-19T04:53:14.028Z,42.80
2022-12-19T04:54:00.985Z,42.85
2022-12-19T04:54:47.946Z,44.47
2022-12-19T04:55:34.949Z,48.53
2022-12-19T04:56:21.853Z,44.53
2022-12-19T04:57:08.887Z,46.17
2022-12-19T04:57:55.856Z,42.78
2022-12-19T04:58:42.849Z,41.75
2022-12-19T04:59:32.188Z,43.47
2022-12-19T05:00:19.199Z,45.38
2022-12-19T05:01:07.698Z,44.53
2022-12-19T05:01:54.823Z,43.55
2022-12-19T05:02:42.125Z,47.00
2022-12-19T05:03:29.289Z,47.33
2022-12-19T05:04:16.245Z,46.92
2022-12-19T05:05:03.318Z,46.47
2022-12-19T05:05:50.216Z,40.55
2022-12-19T05:06:37.379Z,44.38
2022-12-19T05:07:24.318Z,42.42
2022-12-19T05:08:11.206Z,46.65
2022-12-19T05:08:58.246Z,41.22
2022-12-19T05:09:45.120Z,48.00
2022-12-19T05:10:32.082Z,44.97
2022-12-19T05:11:20.089Z,44.88
2022-12-19T05:12:07.300Z,46.00
2022-12-19T05:12:55.146Z,44.53
2022-12-19T05:13:42.236Z,44.92
2022-12-19T05:14:29.160Z,43.75
2022-12-19T05:15:16.404Z,41.97
2022-12-19T05:16:05.871Z,43.72
2022-12-19T05:16:57.226Z,41.92
2022-12-19T05:17:47.447Z,44.17
2022-12-19T05:18:34.738Z,46.25
2022-12-19T05:19:24.487Z,44.38
2022-12-19T05:20:11.899Z,44.20
2022-12-19T05:20:59.136Z,46.40
2022-12-19T05:21:46.016Z,44.95
2022-12-19T05:22:33.135Z,45.80
2022-12-19T05:23:20.528Z,40.22
2022-12-19T05:24:07.747Z,45.20
2022-12-19T05:24:54.686Z,46.58
2022-12-19T05:25:41.545Z,49.90
2022-12-19T05:26:28.430Z,47.47
2022-12-19T05:27:15.428Z,48.65
2022-12-19T05:28:02.306Z,45.70
2022-12-19T05:28:49.206Z,45.95
2022-12-19T05:29:36.076Z,43.13
2022-12-19T05:30:24.726Z,44.25
2022-12-19T05:31:14.418Z,45.28
2022-12-19T05:32:02.096Z,35.53
2022-12-19T05:32:48.975Z,45.95
2022-12-19T05:33:36.422Z,44.83
2022-12-19T05:34:24.639Z,42.72
2022-12-19T05:35:11.636Z,44.38
2022-12-19T05:35:58.676Z,39.28
2022-12-19T05:36:46.895Z,43.53
2022-12-19T05:37:33.776Z,42.95
2022-12-19T05:38:20.689Z,45.47
2022-12-19T05:39:07.546Z,45.50
2022-12-19T05:39:54.466Z,40.15
2022-12-19T05:40:42.767Z,43.58
2022-12-19T05:41:29.724Z,43.35
2022-12-19T05:42:16.543Z,41.90
2022-12-19T05:43:03.489Z,44.70
2022-12-19T05:43:52.818Z,45.10
2022-12-19T05:44:40.004Z,45.30
2022-12-19T05:45:26.906Z,45.75
2022-12-19T05:46:13.917Z,41.80
2022-12-19T05:47:00.905Z,41.45
2022-12-19T05:47:48.174Z,45.90
2022-12-19T05:48:35.562Z,41.70
2022-12-19T05:49:22.418Z,40.60
2022-12-19T05:50:09.965Z,42.75
2022-12-19T05:50:56.914Z,41.70
2022-12-19T05:51:46.986Z,41.25
2022-12-19T05:52:33.875Z,42.65
2022-12-19T05:53:25.755Z,42.60
2022-12-19T05:54:13.105Z,41.03
2022-12-19T05:55:00.263Z,43.87
2022-12-19T05:55:47.126Z,42.65
2022-12-19T05:56:34.031Z,43.95
2022-12-19T05:57:20.911Z,47.03
2022-12-19T05:58:07.782Z,42.33
2022-12-19T05:58:54.906Z,45.20
2022-12-19T05:59:41.902Z,42.88
2022-12-19T06:00:28.805Z,42.50
2022-12-19T06:01:18.553Z,42.53
2022-12-19T06:02:05.639Z,47.25
2022-12-19T06:02:52.659Z,39.97
2022-12-19T06:03:39.950Z,39.95
2022-12-19T06:04:26.853Z,39.47
2022-12-19T06:05:14.086Z,41.85
2022-12-19T06:06:09.672Z,43.22
2022-12-19T06:06:56.591Z,41.30
2022-12-19T06:07:43.496Z,37.97
2022-12-19T06:08:30.462Z,39.33
2022-12-19T06:09:17.360Z,41.03
2022-12-19T06:10:04.847Z,42.10
2022-12-19T06:10:51.813Z,37.75
2022-12-19T06:11:38.719Z,39.10
2022-12-19T06:12:25.660Z,38.38
2022-12-19T06:13:12.520Z,39.25
2022-12-19T06:13:59.469Z,41.85
2022-12-19T06:14:46.362Z,40.20
2022-12-19T06:15:33.285Z,45.50
2022-12-19T06:16:21.644Z,41.63
2022-12-19T06:17:08.604Z,41.42
2022-12-19T06:17:55.562Z,39.90
2022-12-19T06:18:45.035Z,41.55
2022-12-19T06:19:32.281Z,46.35
2022-12-19T06:20:19.181Z,41.78
2022-12-19T06:21:08.043Z,38.50
2022-12-19T06:21:54.982Z,36.80
2022-12-19T06:22:44.631Z,38.63
2022-12-19T06:23:33.243Z,38.72
2022-12-19T06:24:20.132Z,41.95
2022-12-19T06:25:07.964Z,39.50
2022-12-19T06:25:57.623Z,44.50
2022-12-19T06:26:45.020Z,41.25
2022-12-19T06:27:31.908Z,45.00
2022-12-19T06:28:18.861Z,43.55
2022-12-19T06:29:05.763Z,43.15
2022-12-19T06:29:52.724Z,42.25
2022-12-19T06:30:39.610Z,41.13
2022-12-19T06:31:26.615Z,42.40
2022-12-19T06:32:13.554Z,44.45
2022-12-19T06:33:01.198Z,41.08
2022-12-19T06:33:48.093Z,44.97
2022-12-19T06:35:04.661Z,45.28
2022-12-19T06:35:42.298Z,45.28
2022-12-19T06:36:30.781Z,44.80
2022-12-19T06:37:17.783Z,45.65
2022-12-19T06:38:04.687Z,41.97
2022-12-19T06:38:51.998Z,45.00
2022-12-19T06:39:38.948Z,37.97
2022-12-19T06:40:44.730Z,44.88
2022-12-19T06:41:50.573Z,45.45
2022-12-19T06:42:37.512Z,43.65
2022-12-19T06:43:26.005Z,46.53
2022-12-19T06:44:14.667Z,43.90
2022-12-19T06:45:01.630Z,42.00
2022-12-19T06:45:48.529Z,40.53
2022-12-19T06:46:35.434Z,47.05
2022-12-19T06:47:23.324Z,44.22
2022-12-19T06:48:10.252Z,42.75
2022-12-19T06:49:00.015Z,42.28
2022-12-19T06:49:47.034Z,43.30
2022-12-19T06:50:36.111Z,37.83
2022-12-19T06:51:23.462Z,43.92
2022-12-19T06:52:10.321Z,44.72
2022-12-19T06:52:57.190Z,44.00
2022-12-19T06:53:44.187Z,45.33
2022-12-19T06:54:31.674Z,42.78
2022-12-19T06:55:18.910Z,40.12
2022-12-19T06:56:06.120Z,44.10
2022-12-19T06:56:53.021Z,42.50
2022-12-19T06:57:46.186Z,51.72
2022-12-19T06:58:33.787Z,44.17
2022-12-19T06:59:20.818Z,46.25
2022-12-19T07:00:08.498Z,42.92
2022-12-19T07:00:55.502Z,43.65
2022-12-19T07:01:48.589Z,44.30
2022-12-19T07:02:35.586Z,45.90
2022-12-19T07:03:26.048Z,42.80
2022-12-19T07:04:16.100Z,42.53
2022-12-19T07:05:04.731Z,42.90
2022-12-19T07:05:51.700Z,46.37
2022-12-19T07:06:38.978Z,42.72
2022-12-19T07:07:25.883Z,42.25
2022-12-19T07:08:12.793Z,42.58
2022-12-19T07:09:00.321Z,41.17
2022-12-19T07:09:47.229Z,43.53
2022-12-19T07:10:34.233Z,47.38
2022-12-19T07:11:21.118Z,43.05
2022-12-19T07:12:10.177Z,47.55
2022-12-19T07:12:57.078Z,40.35
2022-12-19T07:13:43.988Z,38.85
2022-12-19T07:14:31.007Z,44.38
2022-12-19T07:15:17.876Z,44.92
2022-12-19T07:16:05.842Z,46.92
2022-12-19T07:16:53.733Z,44.88
2022-12-19T07:17:40.843Z,43.15
2022-12-19T07:18:29.540Z,43.50
2022-12-19T07:19:16.736Z,38.13
2022-12-19T07:20:03.968Z,40.03
2022-12-19T07:20:50.998Z,42.38
2022-12-19T07:21:38.383Z,39.78
2022-12-19T07:22:27.749Z,40.58
2022-12-19T07:23:19.701Z,41.03
2022-12-19T07:24:07.494Z,41.20
2022-12-19T07:24:56.325Z,38.25
2022-12-19T07:25:43.279Z,39.47
2022-12-19T07:26:30.296Z,37.17
2022-12-19T07:27:17.191Z,37.58
2022-12-19T07:28:51.417Z,35.50
2022-12-19T07:29:38.291Z,38.70
2022-12-19T07:30:25.189Z,35.85
2022-12-19T07:31:12.852Z,39.05
2022-12-19T07:31:59.961Z,37.67
2022-12-19T07:32:46.851Z,36.53
2022-12-19T07:33:34.045Z,35.92
2022-12-19T07:34:20.976Z,37.13
2022-12-19T07:35:08.371Z,36.72
2022-12-19T07:35:55.291Z,39.40
2022-12-19T07:36:42.207Z,38.03
2022-12-19T07:37:29.128Z,38.58
2022-12-19T07:38:16.415Z,41.58
2022-12-19T07:39:03.400Z,39.05
2022-12-19T07:39:50.571Z,37.97
2022-12-19T07:40:37.503Z,38.97
2022-12-19T07:41:24.446Z,41.10
2022-12-19T07:42:12.355Z,37.70
2022-12-19T07:43:03.574Z,38.17
2022-12-19T07:43:50.476Z,39.55
2022-12-19T07:44:37.394Z,38.80
2022-12-19T07:45:24.297Z,38.60
2022-12-19T07:46:11.466Z,35.10
2022-12-19T07:46:58.413Z,36.85
2022-12-19T07:47:45.386Z,38.45
2022-12-19T07:48:32.290Z,38.00
2022-12-19T07:49:22.622Z,40.40
2022-12-19T07:50:56.789Z,35.72
2022-12-19T07:51:43.708Z,37.85
2022-12-19T07:52:30.657Z,38.40
2022-12-19T07:53:17.592Z,39.30
2022-12-19T07:54:08.257Z,39.53
2022-12-19T07:55:42.240Z,35.63
2022-12-19T07:56:29.138Z,36.50
2022-12-19T07:57:16.185Z,35.83
2022-12-19T07:58:03.257Z,38.33
2022-12-19T07:58:50.248Z,35.53
2022-12-19T07:59:39.414Z,37.10
2022-12-19T08:00:26.444Z,38.33
2022-12-19T08:01:13.489Z,40.10
2022-12-19T08:02:00.621Z,38.10
2022-12-19T08:02:48.159Z,38.22
2022-12-19T08:03:36.177Z,35.58
2022-12-19T08:04:23.226Z,39.38
2022-12-19T08:05:10.440Z,36.22
2022-12-19T08:06:05.480Z,36.80
2022-12-19T08:06:52.361Z,36.33
2022-12-19T08:07:39.291Z,36.17
2022-12-19T08:08:26.418Z,34.80
2022-12-19T08:09:13.719Z,34.72
2022-12-19T08:10:00.790Z,39.33
2022-12-19T08:10:47.756Z,37.83
2022-12-19T08:11:34.741Z,39.38
2022-12-19T08:12:21.744Z,39.00
2022-12-19T08:13:09.246Z,35.67
2022-12-19T08:13:57.366Z,38.63
2022-12-19T08:14:44.870Z,35.17
2022-12-19T08:15:31.855Z,36.72
2022-12-19T08:16:18.833Z,37.22
2022-12-19T08:17:21.778Z,35.50
2022-12-19T08:18:08.904Z,33.47
2022-12-19T08:18:55.974Z,33.03
2022-12-19T08:19:43.060Z,36.47
2022-12-19T08:20:30.395Z,34.53
2022-12-19T08:21:17.382Z,36.25
2022-12-19T08:22:04.305Z,36.45
2022-12-19T08:22:51.724Z,37.83
2022-12-19T08:23:41.606Z,35.75
2022-12-19T08:24:31.118Z,31.67
2022-12-19T08:25:17.992Z,31.12
2022-12-19T08:26:07.603Z,36.58
2022-12-19T08:26:54.556Z,32.28
2022-12-19T08:27:43.026Z,30.65
2022-12-19T08:28:30.946Z,30.48
2022-12-19T08:29:17.864Z,29.95
2022-12-19T08:30:05.265Z,34.17
2022-12-19T08:30:52.334Z,30.33
2022-12-19T08:31:39.286Z,30.67
2022-12-19T08:32:26.227Z,33.17
2022-12-19T08:33:13.200Z,28.90
2022-12-19T08:34:00.205Z,31.45
2022-12-19T08:34:47.149Z,31.23
2022-12-19T08:35:34.205Z,31.02
2022-12-19T08:36:21.305Z,33.10
2022-12-19T08:37:08.976Z,30.42
2022-12-19T08:37:55.878Z,30.98
2022-12-19T08:38:42.829Z,33.83
2022-12-19T08:39:29.736Z,29.92
2022-12-19T08:40:16.685Z,31.73
2022-12-19T08:41:04.448Z,31.75
2022-12-19T08:41:51.425Z,31.83
2022-12-19T08:42:38.297Z,32.70
2022-12-19T08:43:25.531Z,26.55
2022-12-19T08:44:13.521Z,32.40
2022-12-19T08:45:00.430Z,32.63
2022-12-19T08:45:50.640Z,30.62
2022-12-19T08:46:37.646Z,31.05
2022-12-19T08:47:24.671Z,32.38
2022-12-19T08:48:11.758Z,29.12
2022-12-19T08:48:58.641Z,33.83
2022-12-19T08:49:46.901Z,31.48
2022-12-19T08:50:33.779Z,31.75
2022-12-19T08:51:22.145Z,32.95
2022-12-19T08:52:09.020Z,32.47
2022-12-19T08:52:56.055Z,29.58
2022-12-19T08:53:44.316Z,34.10
2022-12-19T08:54:31.212Z,30.17
2022-12-19T08:55:18.259Z,29.85
2022-12-19T08:56:17.077Z,32.55
2022-12-19T08:57:04.139Z,39.03
2022-12-19T08:57:51.016Z,34.05
2022-12-19T08:58:38.007Z,30.42
2022-12-19T08:59:31.622Z,30.85
2022-12-19T09:00:19.235Z,30.08
2022-12-19T09:01:13.646Z,28.90
2022-12-19T09:02:01.305Z,31.92
2022-12-19T09:02:48.611Z,33.58
2022-12-19T09:03:45.851Z,32.08
2022-12-19T09:06:00.334Z,30.35
2022-12-19T09:06:07.023Z,31.80
2022-12-19T09:06:57.360Z,32.67
2022-12-19T09:07:44.307Z,32.22
2022-12-19T09:08:32.360Z,31.12
2022-12-19T09:09:19.257Z,28.98
2022-12-19T09:10:06.587Z,31.23
2022-12-19T09:11:05.935Z,29.95
2022-12-19T09:11:52.881Z,34.10
2022-12-19T09:12:39.902Z,31.58
2022-12-19T09:13:30.510Z,30.17
2022-12-19T09:15:08.923Z,31.80
2022-12-19T09:16:07.189Z,31.40
2022-12-19T09:16:54.137Z,32.55
2022-12-19T09:17:41.077Z,32.35
2022-12-19T09:18:28.916Z,35.67
2022-12-19T09:19:16.680Z,33.47
2022-12-19T09:20:03.778Z,34.33
2022-12-19T09:20:54.281Z,34.88
2022-12-19T09:21:41.390Z,33.45
2022-12-19T09:22:29.556Z,30.35
2022-12-19T09:23:16.621Z,31.15
2022-12-19T09:24:07.925Z,35.33
2022-12-19T09:24:55.447Z,33.72
2022-12-19T09:25:42.326Z,31.27
2022-12-19T09:26:29.198Z,30.12
2022-12-19T09:27:20.753Z,29.65
2022-12-19T09:29:20.749Z,31.05
2022-12-19T09:30:09.246Z,32.42
2022-12-19T09:31:08.426Z,33.65
2022-12-19T09:31:57.053Z,31.90
2022-12-19T09:32:44.218Z,30.55
2022-12-19T09:33:35.490Z,31.80
2022-12-19T09:34:36.956Z,33.35
2022-12-19T09:35:30.035Z,29.75
2022-12-19T09:36:24.516Z,33.63
2022-12-19T09:37:16.847Z,34.60
2022-12-19T09:38:06.752Z,29.92
2022-12-19T09:38:55.038Z,31.42
2022-12-19T09:39:42.070Z,35.67
2022-12-19T09:40:31.784Z,31.58
2022-12-19T09:41:52.630Z,35.17
2022-12-19T09:42:46.673Z,32.33
2022-12-19T09:43:41.253Z,31.62
2022-12-19T09:44:40.776Z,35.50
2022-12-19T09:45:36.643Z,32.40
2022-12-19T09:47:09.690Z,31.37
2022-12-19T09:47:59.036Z,35.00
2022-12-19T09:48:50.922Z,32.58
2022-12-19T09:49:44.208Z,31.25
2022-12-19T09:50:31.031Z,30.90
2022-12-19T09:51:36.020Z,31.08
2022-12-19T09:52:32.856Z,33.17
2022-12-19T09:53:33.756Z,30.12
2022-12-19T09:54:28.358Z,32.90
2022-12-19T09:55:41.723Z,31.75
2022-12-19T09:56:33.093Z,35.80
2022-12-19T09:58:08.760Z,33.72
2022-12-19T09:59:01.175Z,31.65
2022-12-19T10:00:21.504Z,34.22
2022-12-19T10:01:21.561Z,37.42
2022-12-19T10:02:36.835Z,36.63
2022-12-19T10:03:40.346Z,32.85
2022-12-19T10:04:28.644Z,32.17
2022-12-19T10:07:11.875Z,34.83
2022-12-19T10:07:11.921Z,29.05
2022-12-19T10:08:10.379Z,30.12
2022-12-19T10:09:46.329Z,35.63
2022-12-19T10:12:34.812Z,31.87
2022-12-19T10:12:42.573Z,37.60
2022-12-19T10:13:13.275Z,33.45
2022-12-19T10:14:28.070Z,31.12
2022-12-19T10:15:32.263Z,32.30
2022-12-19T10:16:25.075Z,31.77
2022-12-19T10:17:25.353Z,33.17
2022-12-19T10:18:31.037Z,30.35
2022-12-19T10:19:27.549Z,31.58
2022-12-19T10:20:41.009Z,39.05
2022-12-19T10:22:07.399Z,33.72
2022-12-19T10:22:50.300Z,35.17
2022-12-19T10:23:48.669Z,39.53
2022-12-19T10:25:09.393Z,35.00
2022-12-19T10:26:19.546Z,31.55
2022-12-19T10:27:59.456Z,35.00
2022-12-19T10:28:54.719Z,35.90
2022-12-19T10:30:10.156Z,33.85
2022-12-19T10:31:22.048Z,34.30
2022-12-19T10:32:51.452Z,34.38
2022-12-19T10:33:52.445Z,33.40
2022-12-19T10:34:44.422Z,35.08
2022-12-19T10:35:35.050Z,30.02
2022-12-19T10:36:42.011Z,36.30
2022-12-19T10:37:47.320Z,35.30
2022-12-19T10:38:51.242Z,33.83
2022-12-19T10:39:53.812Z,36.20
2022-12-19T10:40:53.971Z,34.22
2022-12-19T10:41:44.219Z,35.13
2022-12-19T10:42:51.824Z,32.72
2022-12-19T10:44:02.870Z,30.35
2022-12-19T10:45:47.424Z,30.58
2022-12-19T10:46:40.532Z,29.98
2022-12-19T10:47:29.897Z,33.97
2022-12-19T10:48:21.988Z,32.20
2022-12-19T10:49:22.247Z,34.20
2022-12-19T10:50:22.439Z,36.53
2022-12-19T10:51:23.337Z,34.70
2022-12-19T10:52:11.780Z,32.95
2022-12-19T10:53:04.716Z,31.52
2022-12-19T10:53:57.409Z,33.78
2022-12-19T10:54:44.390Z,32.63
2022-12-19T10:55:40.619Z,35.08
2022-12-19T10:56:36.797Z,31.05
2022-12-19T10:57:29.334Z,31.40
2022-12-19T10:58:21.888Z,31.95
2022-12-19T10:59:17.127Z,33.72
2022-12-19T11:00:20.379Z,31.85
2022-12-19T11:01:23.293Z,30.65
2022-12-19T11:02:41.965Z,31.62
2022-12-19T11:03:34.905Z,32.75
2022-12-19T11:04:30.269Z,30.40
2022-12-19T11:05:20.437Z,35.75
2022-12-19T11:06:40.728Z,34.95
2022-12-19T11:07:27.656Z,33.67
2022-12-19T11:08:19.040Z,31.65
2022-12-19T11:09:25.595Z,30.73